Time;durP1;ratioP1;P1;durP2;ratioP2;P2;SDS_P1;SDS_P2;PMS_P1;PMS_P2;Temp;Humidity;BMP_temperature;BMP_pressure;BME280_temperature;BME280_humidity;BME280_pressure;Samples;Min_cycle;Max_cycle;Signal;HPM_P1;HPM_P2
2022/07/12 00:00:53;;;;;;;0.93;0.32;;;17.20;99.90;;;;;;5031564;28;20725;-70
2022/07/12 00:03:19;;;;;;;2.28;0.50;;;17.20;99.90;;;;;;5030383;28;20038;-71
2022/07/12 00:05:44;;;;;;;2.72;0.45;;;17.10;99.90;;;;;;5030533;28;20036;-70
2022/07/12 00:08:10;;;;;;;0.95;0.60;;;17.10;99.90;;;;;;5028620;28;20033;-72
2022/07/12 00:10:36;;;;;;;0.70;0.40;;;17.10;99.90;;;;;;5036284;28;20040;-70
2022/07/12 00:13:03;;;;;;;1.70;0.40;;;17.00;99.90;;;;;;5037591;28;20037;-71
2022/07/12 00:15:29;;;;;;;1.35;0.50;;;17.00;99.90;;;;;;5035562;28;20108;-71
2022/07/12 00:17:55;;;;;;;1.70;0.60;;;17.00;99.90;;;;;;5033471;28;20125;-72
2022/07/12 00:20:21;;;;;;;1.00;0.52;;;16.90;99.90;;;;;;5028392;28;20148;-71
2022/07/12 00:22:46;;;;;;;0.82;0.30;;;16.80;99.90;;;;;;5031190;28;20042;-70
2022/07/12 00:25:12;;;;;;;2.08;0.50;;;16.80;99.90;;;;;;5032626;28;20048;-71
2022/07/12 00:27:38;;;;;;;0.93;0.40;;;16.80;99.90;;;;;;5031451;28;20039;-71
2022/07/12 00:30:05;;;;;;;1.70;0.50;;;16.80;99.90;;;;;;5030609;28;20040;-69
2022/07/12 00:32:31;;;;;;;1.20;0.60;;;16.70;99.90;;;;;;5029361;28;20037;-69
2022/07/12 00:34:56;;;;;;;1.92;0.95;;;16.70;99.90;;;;;;5030618;28;20041;-71
2022/07/12 00:37:22;;;;;;;2.65;0.57;;;16.70;99.90;;;;;;5029429;28;20474;-71
2022/07/12 00:39:48;;;;;;;0.88;0.55;;;16.70;99.90;;;;;;5030726;28;20746;-71
2022/07/12 00:42:13;;;;;;;1.88;0.70;;;16.70;99.90;;;;;;5029227;28;20528;-72
2022/07/12 00:44:39;;;;;;;3.25;1.25;;;16.70;99.90;;;;;;5029208;28;20076;-71
2022/07/12 00:47:05;;;;;;;1.60;1.00;;;16.70;99.90;;;;;;5029973;28;20029;-71
2022/07/12 00:49:31;;;;;;;1.63;0.90;;;16.70;99.90;;;;;;5031103;28;20038;-71
2022/07/12 00:51:57;;;;;;;2.80;0.70;;;16.60;99.90;;;;;;5037506;28;20418;-71
2022/07/12 00:54:23;;;;;;;1.95;0.77;;;16.60;99.90;;;;;;5039614;28;20418;-72
2022/07/12 00:56:49;;;;;;;3.92;1.05;;;16.60;99.90;;;;;;5035023;28;20095;-71
2022/07/12 00:59:15;;;;;;;2.50;0.80;;;16.60;99.90;;;;;;5030585;28;20038;-72
2022/07/12 01:01:42;;;;;;;3.45;0.70;;;16.60;99.90;;;;;;5031369;28;20033;-69
2022/07/12 01:04:08;;;;;;;2.00;1.17;;;16.60;99.90;;;;;;5029422;28;20025;-70
2022/07/12 01:06:36;;;;;;;1.83;0.60;;;16.50;99.90;;;;;;5029554;28;20092;-70
2022/07/12 01:09:02;;;;;;;8.63;0.88;;;16.50;99.90;;;;;;5030228;28;20060;-70
2022/07/12 01:11:28;;;;;;;4.18;0.70;;;16.50;99.90;;;;;;5030205;28;20383;-72
2022/07/12 01:13:54;;;;;;;2.55;0.80;;;16.40;99.90;;;;;;5026490;28;20042;-71
2022/07/12 01:16:20;;;;;;;2.05;0.70;;;16.40;99.90;;;;;;5029504;28;20053;-71
2022/07/12 01:18:46;;;;;;;1.60;0.90;;;16.30;99.90;;;;;;5028685;28;20034;-70
2022/07/12 01:21:18;;;;;;;1.23;0.73;;;16.30;99.90;;;;;;5027592;28;20037;-72
2022/07/12 01:23:45;;;;;;;2.50;0.55;;;16.20;99.90;;;;;;5029892;28;20030;-71
2022/07/12 01:26:11;;;;;;;1.20;0.60;;;16.20;99.90;;;;;;5030670;28;20094;-71
2022/07/12 01:28:37;;;;;;;4.15;0.90;;;16.20;99.90;;;;;;5030603;28;20026;-71
2022/07/12 01:31:04;;;;;;;3.00;0.80;;;16.10;99.90;;;;;;5029293;28;20061;-70
2022/07/12 01:33:30;;;;;;;1.23;0.60;;;16.20;99.90;;;;;;5028430;28;20025;-71
2022/07/12 01:35:56;;;;;;;2.72;0.90;;;16.10;99.90;;;;;;5030371;28;20083;-71
2022/07/12 01:38:22;;;;;;;2.67;1.02;;;16.10;99.90;;;;;;5023959;28;20049;-71
2022/07/12 01:40:48;;;;;;;3.30;1.15;;;16.20;99.90;;;;;;5029638;28;20155;-71
2022/07/12 01:43:14;;;;;;;3.55;1.08;;;16.20;99.90;;;;;;5029063;28;20057;-72
2022/07/12 01:45:41;;;;;;;1.45;0.98;;;16.30;99.90;;;;;;5030873;28;20037;-71
2022/07/12 01:48:06;;;;;;;2.33;1.50;;;16.40;99.90;;;;;;5033029;28;20045;-71
2022/07/12 01:50:32;;;;;;;1.73;0.77;;;16.40;99.90;;;;;;5032503;28;20087;-69
2022/07/12 01:53:00;;;;;;;4.43;1.02;;;16.40;99.90;;;;;;5033772;28;20029;-72
2022/07/12 01:55:26;;;;;;;4.15;1.30;;;16.40;99.90;;;;;;5033139;28;20075;-72
2022/07/12 01:57:52;;;;;;;6.20;1.10;;;16.40;99.90;;;;;;5034077;28;20038;-71
2022/07/12 02:00:19;;;;;;;3.67;1.00;;;16.40;99.90;;;;;;5032797;28;20048;-70
2022/07/12 02:02:45;;;;;;;2.03;0.80;;;16.30;99.90;;;;;;5032248;28;20037;-71
2022/07/12 02:05:11;;;;;;;1.73;1.05;;;16.30;99.90;;;;;;5036815;28;20053;-71
2022/07/12 02:07:37;;;;;;;3.17;1.17;;;16.30;99.90;;;;;;5032802;28;20064;-72
2022/07/12 02:10:06;;;;;;;2.92;1.55;;;16.20;99.90;;;;;;5032790;28;20040;-70
2022/07/12 02:12:31;;;;;;;2.45;1.30;;;16.10;99.90;;;;;;5032475;28;20536;-72
2022/07/12 02:14:57;;;;;;;2.13;1.38;;;16.10;99.90;;;;;;5030332;28;20037;-72
2022/07/12 02:17:22;;;;;;;1.52;0.85;;;16.10;99.90;;;;;;5042904;28;20033;-71
2022/07/12 02:19:48;;;;;;;3.03;1.35;;;16.10;99.90;;;;;;5033083;28;20037;-72
2022/07/12 02:22:14;;;;;;;2.25;1.02;;;16.00;99.90;;;;;;5030600;28;20494;-71
2022/07/12 02:24:39;;;;;;;4.05;1.20;;;16.00;99.90;;;;;;5032955;28;20030;-72
2022/07/12 02:27:05;;;;;;;11.70;1.52;;;15.90;99.90;;;;;;5033917;28;20056;-70
2022/07/12 02:29:32;;;;;;;2.80;1.00;;;15.90;99.90;;;;;;5031497;28;20038;-72
2022/07/12 02:31:57;;;;;;;2.50;1.20;;;15.90;99.90;;;;;;5032735;28;20097;-71
2022/07/12 02:34:23;;;;;;;2.72;1.27;;;15.90;99.90;;;;;;5030882;28;20037;-71
2022/07/12 02:36:48;;;;;;;2.53;1.30;;;15.80;99.90;;;;;;5030992;28;20516;-72
2022/07/12 02:39:14;;;;;;;2.88;1.25;;;15.80;99.90;;;;;;5030393;28;20478;-72
2022/07/12 02:41:40;;;;;;;4.40;1.33;;;15.80;99.90;;;;;;5032302;28;20091;-71
2022/07/12 02:44:05;;;;;;;3.35;1.60;;;15.80;99.90;;;;;;5031785;28;20413;-72
2022/07/12 02:46:31;;;;;;;5.20;1.90;;;15.90;99.90;;;;;;5032459;28;20403;-71
2022/07/12 02:48:57;;;;;;;4.30;2.30;;;15.90;99.90;;;;;;5032792;28;20042;-71
2022/07/12 02:51:23;;;;;;;2.95;2.08;;;15.90;99.90;;;;;;5030215;28;20108;-72
2022/07/12 02:53:48;;;;;;;3.38;2.10;;;15.90;99.90;;;;;;5031432;28;20541;-71
2022/07/12 02:56:14;;;;;;;3.97;1.98;;;15.90;99.90;;;;;;5029639;28;20034;-72
2022/07/12 02:58:40;;;;;;;4.15;1.95;;;15.90;99.90;;;;;;5031577;28;20057;-71
2022/07/12 03:01:06;;;;;;;2.45;1.52;;;16.00;99.90;;;;;;5030630;28;20513;-70
2022/07/12 03:03:31;;;;;;;4.35;1.83;;;16.00;99.90;;;;;;5030195;28;20029;-71
2022/07/12 03:05:58;;;;;;;4.00;1.50;;;16.00;99.90;;;;;;5036074;28;20032;-71
2022/07/12 03:08:23;;;;;;;4.32;1.95;;;16.00;99.90;;;;;;5031540;28;20665;-71
2022/07/12 03:10:49;;;;;;;4.15;2.03;;;16.00;99.90;;;;;;5031434;28;20033;-71
2022/07/12 03:13:14;;;;;;;3.95;2.03;;;16.00;99.90;;;;;;5031512;28;20025;-72
2022/07/12 03:15:40;;;;;;;3.83;2.13;;;15.90;99.90;;;;;;5032498;28;20032;-71
2022/07/12 03:18:06;;;;;;;4.45;2.00;;;15.90;99.90;;;;;;5032171;28;20037;-70
2022/07/12 03:20:31;;;;;;;2.90;1.92;;;15.90;99.90;;;;;;5030496;28;20048;-69
2022/07/12 03:22:57;;;;;;;2.42;1.75;;;15.90;99.90;;;;;;5032136;28;20044;-71
2022/07/12 03:25:24;;;;;;;2.75;1.90;;;15.90;99.90;;;;;;5033029;28;20061;-71
2022/07/12 03:27:49;;;;;;;3.25;2.28;;;15.80;99.90;;;;;;5032231;28;20034;-72
2022/07/12 03:30:15;;;;;;;3.58;2.03;;;15.80;99.90;;;;;;5030898;28;20040;-72
2022/07/12 03:32:42;;;;;;;5.78;2.22;;;15.80;99.90;;;;;;5031717;28;20067;-73
2022/07/12 03:35:08;;;;;;;2.97;1.98;;;15.80;99.90;;;;;;5031584;28;20382;-71
2022/07/12 03:37:50;;;;;;;4.60;1.83;;;15.70;99.90;;;;;;5030448;28;20447;-72
2022/07/12 03:40:17;;;;;;;3.28;1.88;;;15.70;99.90;;;;;;5034266;28;20141;-72
2022/07/12 03:42:44;;;;;;;2.33;1.70;;;15.70;99.90;;;;;;5031707;28;20038;-72
2022/07/12 03:45:10;;;;;;;4.18;2.10;;;15.60;99.90;;;;;;5031759;28;20042;-70
2022/07/12 03:47:37;;;;;;;2.33;1.70;;;15.60;99.90;;;;;;5030213;28;20507;-71
2022/07/12 03:50:15;;;;;;;4.18;2.22;;;15.60;99.90;;;;;;5029651;28;20049;-70
2022/07/12 03:52:43;;;;;;;5.78;2.30;;;15.60;99.90;;;;;;5030444;28;20038;-71
2022/07/12 03:55:10;;;;;;;4.13;2.35;;;15.60;99.90;;;;;;5029718;28;20506;-70
2022/07/12 03:57:36;;;;;;;4.90;1.92;;;15.60;99.90;;;;;;5029736;28;20033;-72
2022/07/12 04:00:10;;;;;;;12.10;2.70;;;15.50;99.90;;;;;;5028174;28;20038;-70
2022/07/12 04:02:37;;;;;;;3.65;1.70;;;15.50;99.90;;;;;;5030317;28;20421;-71
2022/07/12 04:05:03;;;;;;;3.50;2.28;;;15.50;99.90;;;;;;5033310;28;20120;-71
2022/07/12 04:07:28;;;;;;;5.05;2.45;;;15.50;99.90;;;;;;5028265;28;20042;-72
2022/07/12 04:09:54;;;;;;;5.05;2.40;;;15.50;99.90;;;;;;5030420;28;20842;-72
2022/07/12 04:12:19;;;;;;;6.20;2.45;;;15.50;99.90;;;;;;5029340;28;20504;-71
2022/07/12 04:14:45;;;;;;;3.75;2.53;;;15.50;99.90;;;;;;5030570;28;20844;-72
2022/07/12 04:17:10;;;;;;;5.25;2.65;;;15.60;99.90;;;;;;5029882;28;20030;-71
2022/07/12 04:19:37;;;;;;;5.18;2.22;;;15.60;99.90;;;;;;5030573;28;20120;-71
2022/07/12 04:22:02;;;;;;;4.32;2.67;;;15.60;99.90;;;;;;5028510;28;20037;-71
2022/07/12 04:24:28;;;;;;;5.75;2.80;;;15.60;99.90;;;;;;5028604;28;20061;-71
2022/07/12 04:26:53;;;;;;;5.75;3.13;;;15.70;99.90;;;;;;5031758;28;20037;-69
2022/07/12 04:29:20;;;;;;;5.20;3.08;;;15.80;99.90;;;;;;5029575;28;20591;-71
2022/07/12 04:31:45;;;;;;;6.15;2.95;;;15.80;99.90;;;;;;5029790;28;20041;-72
2022/07/12 04:34:11;;;;;;;5.05;2.78;;;15.80;99.90;;;;;;5028973;28;20080;-71
2022/07/12 04:36:37;;;;;;;4.85;3.15;;;15.90;99.90;;;;;;5030568;28;20041;-71
2022/07/12 04:39:03;;;;;;;5.35;2.83;;;16.00;99.90;;;;;;5028620;28;20029;-71
2022/07/12 04:41:29;;;;;;;4.55;2.50;;;16.00;99.90;;;;;;5029841;28;20041;-69
2022/07/12 04:43:54;;;;;;;4.75;3.03;;;16.00;99.90;;;;;;5029686;28;20037;-71
2022/07/12 04:46:20;;;;;;;4.15;2.80;;;16.10;99.90;;;;;;5029512;28;20164;-72
2022/07/12 04:48:45;;;;;;;6.35;3.03;;;16.20;99.90;;;;;;5029733;28;20068;-72
2022/07/12 04:51:11;;;;;;;4.50;2.58;;;16.20;99.90;;;;;;5028193;28;20110;-71
2022/07/12 04:53:36;;;;;;;4.43;2.90;;;16.30;99.90;;;;;;5029269;28;20034;-71
2022/07/12 04:56:02;;;;;;;5.63;2.92;;;16.30;99.90;;;;;;5030108;28;20042;-71
2022/07/12 04:58:28;;;;;;;5.32;2.88;;;16.30;99.90;;;;;;5026192;28;20033;-72
2022/07/12 05:00:53;;;;;;;5.82;2.83;;;16.40;99.90;;;;;;5028287;28;20135;-71
2022/07/12 05:03:19;;;;;;;5.18;3.20;;;16.40;99.90;;;;;;5026354;28;20149;-71
2022/07/12 05:05:44;;;;;;;4.35;2.85;;;16.50;99.90;;;;;;5029169;28;20091;-70
2022/07/12 05:08:10;;;;;;;4.13;2.88;;;16.60;99.90;;;;;;5026896;28;20040;-70
2022/07/12 05:10:35;;;;;;;8.43;2.42;;;16.60;99.90;;;;;;5029081;28;20397;-71
2022/07/12 05:13:01;;;;;;;5.57;2.97;;;16.60;99.90;;;;;;5025897;28;20030;-73
2022/07/12 05:15:27;;;;;;;5.68;3.75;;;16.70;99.90;;;;;;5027947;28;20180;-71
2022/07/12 05:17:52;;;;;;;5.25;3.38;;;16.80;99.90;;;;;;5027274;28;20037;-72
2022/07/12 05:20:19;;;;;;;6.18;3.78;;;16.80;99.90;;;;;;5028906;28;20636;-72
2022/07/12 05:22:44;;;;;;;5.25;3.63;;;16.80;99.90;;;;;;5031339;28;20114;-70
2022/07/12 05:25:10;;;;;;;5.10;3.22;;;16.90;99.90;;;;;;5030698;28;20061;-70
2022/07/12 05:27:36;;;;;;;7.15;4.32;;;17.00;99.90;;;;;;5030539;28;20545;-72
2022/07/12 05:30:02;;;;;;;7.50;3.88;;;17.00;99.90;;;;;;5031411;28;20430;-71
2022/07/12 05:32:28;;;;;;;5.43;3.38;;;17.10;99.90;;;;;;5029762;28;20077;-71
2022/07/12 05:34:54;;;;;;;5.97;3.50;;;17.20;99.90;;;;;;5031785;28;20037;-72
2022/07/12 05:37:20;;;;;;;8.65;4.25;;;17.30;99.90;;;;;;5028587;28;20405;-72
2022/07/12 05:39:45;;;;;;;6.18;3.63;;;17.40;99.90;;;;;;5032774;28;20045;-72
2022/07/12 05:42:11;;;;;;;8.57;3.88;;;17.40;99.90;;;;;;5029923;28;20373;-72
2022/07/12 05:44:37;;;;;;;5.47;3.05;;;17.50;99.90;;;;;;5028928;28;20473;-72
2022/07/12 05:47:02;;;;;;;5.13;3.35;;;17.60;99.90;;;;;;5031212;28;20048;-72
2022/07/12 05:49:28;;;;;;;5.18;2.65;;;17.70;99.90;;;;;;5031423;28;20049;-72
2022/07/12 05:54:38;;;;;;;5.50;3.83;;;18.00;99.90;;;;;;5027402;28;20033;-72
2022/07/12 05:57:04;;;;;;;7.40;2.13;;;18.40;99.90;;;;;;5031919;28;20018;-72
2022/07/12 05:59:30;;;;;;;4.65;3.00;;;18.80;99.90;;;;;;5030084;28;20037;-72
2022/07/12 06:01:56;;;;;;;4.05;2.72;;;19.30;99.90;;;;;;5031295;28;20041;-70
2022/07/12 06:04:22;;;;;;;4.80;2.72;;;19.50;99.90;;;;;;5030127;28;20120;-70
2022/07/12 06:06:48;;;;;;;3.65;2.58;;;19.80;99.90;;;;;;5031744;28;20129;-70
2022/07/12 06:09:13;;;;;;;2.92;1.92;;;20.10;99.90;;;;;;5028666;28;20040;-71
2022/07/12 06:11:39;;;;;;;2.80;1.77;;;20.30;99.90;;;;;;5031640;28;20112;-72
2022/07/12 06:14:04;;;;;;;2.00;1.45;;;20.40;99.90;;;;;;5028430;28;20113;-71
2022/07/12 06:16:30;;;;;;;3.63;1.80;;;20.60;99.90;;;;;;5030577;28;20168;-72
2022/07/12 06:18:55;;;;;;;2.38;1.73;;;20.80;99.90;;;;;;5028372;28;20029;-70
2022/07/12 06:21:21;;;;;;;5.60;1.98;;;20.90;99.90;;;;;;5030396;28;20033;-72
2022/07/12 06:23:46;;;;;;;2.42;1.60;;;21.00;99.90;;;;;;5029178;28;20033;-72
2022/07/12 06:26:12;;;;;;;2.72;1.88;;;21.00;99.90;;;;;;5024631;28;20108;-72
2022/07/12 06:28:38;;;;;;;5.15;1.95;;;21.10;99.90;;;;;;5028750;28;20068;-72
2022/07/12 06:31:03;;;;;;;3.47;1.80;;;21.30;99.90;;;;;;5029759;28;20513;-71
2022/07/12 06:33:29;;;;;;;5.20;1.75;;;21.30;99.90;;;;;;5028621;28;20036;-72
2022/07/12 06:35:54;;;;;;;5.65;1.63;;;21.40;99.90;;;;;;5030393;28;20040;-71
2022/07/12 06:38:20;;;;;;;6.30;1.92;;;21.30;99.90;;;;;;5028465;28;20064;-72
2022/07/12 06:40:45;;;;;;;2.25;1.75;;;21.30;99.90;;;;;;5028482;28;20045;-72
2022/07/12 06:43:12;;;;;;;3.25;1.30;;;21.30;99.90;;;;;;5028142;28;20052;-70
2022/07/12 06:45:39;;;;;;;2.20;1.42;;;21.30;99.90;;;;;;5035689;28;20051;-72
2022/07/12 06:48:05;;;;;;;2.50;1.60;;;21.40;99.90;;;;;;5032399;28;20510;-71
2022/07/12 06:50:31;;;;;;;2.13;1.40;;;21.40;99.90;;;;;;5026994;28;20413;-70
2022/07/12 06:52:56;;;;;;;4.25;1.92;;;21.60;99.90;;;;;;5029963;28;20038;-70
2022/07/12 06:55:22;;;;;;;4.75;1.60;;;21.80;99.90;;;;;;5027673;28;20037;-71
2022/07/12 06:57:48;;;;;;;3.40;1.85;;;21.80;99.90;;;;;;5029487;28;20427;-72
2022/07/12 07:00:14;;;;;;;3.20;1.63;;;21.90;99.90;;;;;;5027752;28;20033;-70
2022/07/12 07:02:39;;;;;;;4.15;1.60;;;22.00;99.90;;;;;;5029138;28;20029;-72
2022/07/12 07:05:06;;;;;;;2.45;1.40;;;22.10;99.90;;;;;;5027070;28;20034;-72
2022/07/12 07:07:31;;;;;;;3.42;1.67;;;22.10;99.90;;;;;;5028010;28;20037;-72
2022/07/12 07:09:57;;;;;;;2.63;1.58;;;22.10;99.90;;;;;;5029182;28;20033;-71
2022/07/12 07:12:22;;;;;;;2.35;1.50;;;22.00;99.90;;;;;;5029990;28;20040;-71
2022/07/12 07:14:48;;;;;;;3.53;1.45;;;22.10;99.90;;;;;;5026075;28;20037;-69
2022/07/12 07:17:16;;;;;;;1.88;1.13;;;22.20;99.90;;;;;;5026714;28;20029;-70
2022/07/12 07:19:42;;;;;;;3.30;1.38;;;22.30;99.90;;;;;;5028774;28;20166;-70
2022/07/12 07:22:07;;;;;;;2.92;1.33;;;22.50;99.90;;;;;;5029672;28;20748;-71
2022/07/12 07:24:33;;;;;;;2.60;1.60;;;22.90;99.90;;;;;;5026428;28;20981;-71
2022/07/12 07:26:58;;;;;;;2.42;1.50;;;23.60;99.90;;;;;;5032721;28;20452;-69
2022/07/12 07:32:09;;;;;;;2.80;1.35;;;24.10;99.90;;;;;;5029779;28;20854;-70
2022/07/12 07:34:34;;;;;;;2.42;1.55;;;24.10;99.90;;;;;;5030012;28;20041;-69
2022/07/12 07:37:00;;;;;;;1.70;1.35;;;24.40;99.90;;;;;;5031169;28;20108;-72
2022/07/12 07:39:25;;;;;;;2.63;1.50;;;25.30;99.90;;;;;;5028801;28;20483;-70
2022/07/12 07:41:51;;;;;;;5.22;1.67;;;26.00;99.90;;;;;;5032939;28;20423;-71
2022/07/12 07:44:16;;;;;;;3.92;2.03;;;26.40;99.90;;;;;;5027250;28;20025;-71
2022/07/12 07:46:42;;;;;;;4.13;1.90;;;26.80;99.90;;;;;;5028447;28;20118;-70
2022/07/12 07:49:08;;;;;;;6.50;1.98;;;27.10;99.90;;;;;;5029283;28;20090;-72
2022/07/12 07:51:33;;;;;;;5.05;2.03;;;27.00;99.90;;;;;;5031490;28;20037;-70
2022/07/12 07:53:59;;;;;;;3.03;2.30;;;27.00;99.90;;;;;;5031056;28;20549;-71
2022/07/12 07:56:24;;;;;;;2.38;1.98;;;26.60;99.90;;;;;;5028474;28;20515;-71
2022/07/12 07:58:51;;;;;;;6.72;2.03;;;26.30;99.90;;;;;;5028374;28;20029;-71
2022/07/12 08:01:17;;;;;;;6.43;2.47;;;25.80;99.90;;;;;;5029451;28;20037;-74
2022/07/12 08:03:42;;;;;;;2.30;1.80;;;25.60;99.90;;;;;;5028579;28;20050;-69
2022/07/12 08:06:08;;;;;;;4.63;2.10;;;25.40;99.90;;;;;;5030908;28;20536;-69
2022/07/12 08:08:34;;;;;;;3.00;1.75;;;25.40;99.90;;;;;;5029299;28;20033;-70
2022/07/12 08:10:59;;;;;;;2.40;1.50;;;25.60;99.90;;;;;;5023729;28;20117;-68
2022/07/12 08:13:25;;;;;;;3.17;1.50;;;25.80;99.90;;;;;;5027328;28;20109;-70
2022/07/12 08:15:50;;;;;;;4.15;1.42;;;26.00;99.90;;;;;;5028285;28;20486;-70
2022/07/12 08:18:16;;;;;;;2.17;1.17;;;26.40;99.90;;;;;;5028778;28;20523;-71
2022/07/12 08:20:41;;;;;;;4.05;1.50;;;26.70;99.90;;;;;;5027911;28;20045;-71
2022/07/12 08:23:08;;;;;;;2.28;1.50;;;26.60;99.90;;;;;;5026454;28;20128;-72
2022/07/12 08:25:34;;;;;;;1.67;1.27;;;26.60;99.90;;;;;;5025015;28;20032;-70
2022/07/12 08:27:59;;;;;;;1.77;1.10;;;26.60;99.90;;;;;;5028503;28;20029;-70
2022/07/12 08:30:26;;;;;;;5.72;1.70;;;26.50;99.90;;;;;;5024935;28;20644;-70
2022/07/12 08:32:51;;;;;;;3.05;1.75;;;26.50;99.90;;;;;;5027652;28;20091;-71
2022/07/12 08:35:17;;;;;;;4.20;1.60;;;26.40;99.90;;;;;;5025696;28;20037;-70
2022/07/12 08:37:42;;;;;;;3.03;1.70;;;26.40;99.90;;;;;;5028933;28;20116;-71
2022/07/12 08:40:09;;;;;;;4.90;1.70;;;26.30;99.90;;;;;;5027556;28;20123;-68
2022/07/12 08:42:34;;;;;;;4.65;1.95;;;26.30;99.90;;;;;;5028286;28;20038;-69
2022/07/12 08:45:00;;;;;;;2.20;1.42;;;26.30;99.90;;;;;;5026080;28;20042;-71
2022/07/12 08:47:26;;;;;;;2.30;1.50;;;26.20;99.90;;;;;;5027553;28;20040;-69
2022/07/12 08:50:10;;;;;;;2.10;1.48;;;26.30;99.90;;;;;;5025718;28;20668;-71
2022/07/12 08:52:43;;;;;;;3.95;2.00;;;26.30;99.90;;;;;;5027790;28;20111;-69
2022/07/12 08:55:20;;;;;;;2.40;1.70;;;26.20;99.90;;;;;;5023967;28;20053;-71
2022/07/12 08:57:46;;;;;;;3.28;1.60;;;26.20;99.90;;;;;;5038573;28;20536;-71
2022/07/12 09:00:12;;;;;;;2.58;2.10;;;26.10;99.90;;;;;;5026586;28;20057;-70
2022/07/12 09:02:58;;;;;;;3.00;2.03;;;26.20;99.90;;;;;;5027359;28;20045;-71
2022/07/12 09:05:27;;;;;;;3.53;1.63;;;26.10;99.90;;;;;;5025983;28;20402;-70
2022/07/12 09:08:08;;;;;;;1.98;1.23;;;26.10;99.90;;;;;;5026610;28;20546;-70
2022/07/12 09:10:54;;;;;;;1.90;1.40;;;26.20;99.20;;;;;;5025523;28;20034;-71
2022/07/12 09:13:40;;;;;;;2.60;1.70;;;26.20;99.70;;;;;;5017064;28;22839;-72
2022/07/12 09:16:13;;;;;;;3.13;1.98;;;26.40;99.90;;;;;;5027051;28;20034;-71
2022/07/12 09:18:39;;;;;;;2.70;1.90;;;26.50;99.90;;;;;;5027064;28;20025;-71
2022/07/12 09:21:05;;;;;;;3.38;1.80;;;26.70;99.40;;;;;;5025650;28;20063;-70
2022/07/12 09:23:31;;;;;;;2.33;1.75;;;26.90;98.50;;;;;;5025692;28;20095;-71
2022/07/12 09:25:56;;;;;;;4.60;1.70;;;27.00;99.20;;;;;;5030680;28;20045;-70
2022/07/12 09:28:22;;;;;;;2.72;1.50;;;27.00;99.40;;;;;;5026131;28;20030;-72
2022/07/12 09:30:49;;;;;;;2.53;1.73;;;27.00;98.70;;;;;;5026518;28;20095;-71
2022/07/12 09:36:12;;;;;;;1.02;0.93;;;27.00;97.90;;;;;;5028741;28;20056;-72
2022/07/12 09:38:49;;;;;;;2.92;1.23;;;27.00;97.80;;;;;;5025009;28;20448;-72
2022/07/12 09:41:18;;;;;;;1.63;1.00;;;27.00;97.80;;;;;;5024733;28;20041;-70
2022/07/12 09:43:45;;;;;;;2.35;1.15;;;27.00;98.00;;;;;;5026188;28;20045;-70
2022/07/12 09:46:10;;;;;;;2.10;1.50;;;26.80;97.90;;;;;;5026841;28;20045;-70
2022/07/12 09:48:37;;;;;;;5.20;1.35;;;26.80;97.80;;;;;;5026989;28;20034;-72
2022/07/12 09:51:04;;;;;;;3.00;1.70;;;26.80;97.80;;;;;;5026888;28;20030;-71
2022/07/12 09:53:33;;;;;;;3.20;1.40;;;26.80;97.70;;;;;;5027118;28;20446;-70
2022/07/12 09:56:05;;;;;;;3.88;1.00;;;27.00;97.50;;;;;;5028109;28;20547;-71
2022/07/12 09:58:34;;;;;;;3.60;1.27;;;27.10;98.50;;;;;;5026029;28;20025;-70
2022/07/12 10:01:01;;;;;;;0.77;0.77;;;27.30;97.30;;;;;;5021033;28;20030;-72
2022/07/12 10:03:31;;;;;;;3.60;1.63;;;27.50;96.70;;;;;;5025967;28;20045;-72
2022/07/12 10:05:59;;;;;;;3.28;1.58;;;27.60;95.90;;;;;;5028597;28;20116;-71
2022/07/12 10:08:25;;;;;;;2.13;1.30;;;27.40;96.50;;;;;;5027370;28;20057;-72
2022/07/12 10:10:51;;;;;;;2.50;1.40;;;27.30;96.50;;;;;;5032716;28;20104;-70
2022/07/12 10:13:18;;;;;;;1.27;1.10;;;27.10;97.50;;;;;;5024558;28;20037;-71
2022/07/12 10:15:46;;;;;;;3.17;1.13;;;27.00;97.80;;;;;;5028376;28;20042;-71
2022/07/12 10:18:20;;;;;;;2.20;1.35;;;27.00;98.20;;;;;;5024818;28;20045;-72
2022/07/12 10:20:49;;;;;;;2.55;1.42;;;27.10;95.80;;;;;;5024995;28;20060;-71
2022/07/12 10:23:35;;;;;;;2.00;1.08;;;27.10;96.90;;;;;;5026822;28;20494;-70
2022/07/12 10:26:21;;;;;;;3.13;1.55;;;27.10;96.80;;;;;;5029224;28;20033;-71
2022/07/12 10:29:00;;;;;;;2.03;1.15;;;27.20;95.60;;;;;;5026802;28;20053;-71
2022/07/12 10:31:30;;;;;;;1.38;1.08;;;27.30;96.40;;;;;;5025536;28;20045;-72
2022/07/12 10:34:13;;;;;;;;;;;27.40;96.20;;;;;;5025550;28;20042;-72
2022/07/12 10:36:57;;;;;;;7.28;1.52;;;27.60;96.10;;;;;;5007846;28;19917;-71
2022/07/12 10:39:24;;;;;;;3.65;2.05;;;27.60;96.10;;;;;;5025152;28;20700;-71
2022/07/12 10:42:07;;;;;;;2.63;1.30;;;27.60;94.70;;;;;;5028919;28;20029;-72
2022/07/12 10:44:43;;;;;;;2.63;1.23;;;27.80;95.00;;;;;;5024429;28;20057;-71
2022/07/12 10:47:12;;;;;;;3.22;1.08;;;27.90;95.50;;;;;;5028348;28;20045;-72
2022/07/12 10:49:42;;;;;;;2.60;1.50;;;27.90;93.40;;;;;;5030919;28;20056;-72
2022/07/12 10:52:11;;;;;;;3.05;1.10;;;27.80;94.40;;;;;;5029914;28;20028;-73
2022/07/12 10:54:41;;;;;;;1.23;0.93;;;27.90;93.50;;;;;;5027294;28;20034;-72
2022/07/12 10:57:07;;;;;;;2.03;1.33;;;27.90;94.40;;;;;;5030863;28;20508;-70
2022/07/12 10:59:35;;;;;;;3.20;1.33;;;28.00;94.30;;;;;;5029061;28;20648;-71
2022/07/12 11:02:01;;;;;;;1.63;1.17;;;28.10;94.50;;;;;;5032204;28;20044;-71
2022/07/12 11:04:28;;;;;;;2.90;1.77;;;28.10;94.80;;;;;;5028488;28;20043;-72
2022/07/12 11:06:55;;;;;;;2.45;1.23;;;28.10;94.30;;;;;;5029716;28;20450;-72
2022/07/12 11:09:21;;;;;;;4.07;0.95;;;28.00;94.20;;;;;;5026257;28;20583;-72
2022/07/12 11:11:51;;;;;;;1.98;1.40;;;28.00;93.10;;;;;;5032268;28;20041;-72
2022/07/12 11:14:35;;;;;;;2.15;1.38;;;28.10;93.50;;;;;;5028468;28;20042;-71
2022/07/12 11:17:01;;;;;;;2.25;1.13;;;28.00;93.30;;;;;;5030070;28;20120;-71
2022/07/12 11:19:29;;;;;;;2.60;1.05;;;28.00;93.40;;;;;;5026696;28;20116;-72
2022/07/12 11:21:58;;;;;;;2.05;1.23;;;28.10;92.90;;;;;;5030242;28;20037;-72
2022/07/12 11:24:31;;;;;;;3.05;1.58;;;28.20;92.70;;;;;;5028876;28;20033;-72
2022/07/12 11:26:59;;;;;;;2.05;1.65;;;28.30;92.60;;;;;;5030439;28;20045;-71
2022/07/12 11:29:25;;;;;;;1.70;1.15;;;28.20;92.90;;;;;;5028376;28;20063;-72
2022/07/12 11:32:06;;;;;;;2.00;1.20;;;28.20;91.90;;;;;;5029490;28;20045;-72
2022/07/12 11:34:34;;;;;;;4.57;1.20;;;28.10;92.50;;;;;;5030854;28;20029;-70
2022/07/12 11:37:01;;;;;;;1.42;0.70;;;28.10;92.90;;;;;;5029542;28;20041;-72
2022/07/12 11:39:30;;;;;;;3.10;1.70;;;28.20;91.40;;;;;;5026661;28;20405;-72
2022/07/12 11:41:57;;;;;;;3.58;1.83;;;28.40;92.20;;;;;;5026873;28;20128;-71
2022/07/12 11:44:50;;;;;;;2.72;1.90;;;28.40;92.80;;;;;;5028566;28;20136;-71
2022/07/12 11:47:17;;;;;;;4.15;2.25;;;28.30;93.00;;;;;;5025678;28;20040;-72
2022/07/12 11:49:52;;;;;;;5.03;2.40;;;28.30;93.50;;;;;;5028272;28;20049;-72
2022/07/12 11:52:19;;;;;;;3.80;2.05;;;28.20;94.20;;;;;;5026547;28;20041;-71
2022/07/12 11:54:46;;;;;;;2.45;1.85;;;28.10;93.80;;;;;;5028186;28;20041;-72
2022/07/12 11:57:12;;;;;;;2.50;1.58;;;28.10;93.00;;;;;;5025292;28;20560;-72
2022/07/12 11:59:38;;;;;;;3.45;1.50;;;28.10;93.50;;;;;;5028727;28;20060;-71
2022/07/12 12:02:08;;;;;;;3.92;2.25;;;28.00;93.20;;;;;;5028735;28;20486;-71
2022/07/12 12:04:54;;;;;;;3.85;2.10;;;28.10;93.90;;;;;;5028606;28;20033;-71
2022/07/12 12:07:22;;;;;;;2.88;1.70;;;28.10;93.60;;;;;;5025277;28;20029;-71
2022/07/12 12:10:02;;;;;;;1.92;1.52;;;28.00;93.10;;;;;;5028629;28;20680;-72
2022/07/12 12:12:39;;;;;;;6.03;1.60;;;28.10;93.60;;;;;;5023762;28;20033;-70
2022/07/12 12:15:06;;;;;;;5.45;2.85;;;28.20;93.70;;;;;;5028888;28;20041;-71
2022/07/12 12:17:33;;;;;;;4.90;3.30;;;28.10;94.00;;;;;;5027692;28;20082;-70
2022/07/12 12:20:09;;;;;;;4.13;2.85;;;28.10;93.80;;;;;;5029416;28;20033;-70
2022/07/12 12:22:34;;;;;;;3.55;2.50;;;28.10;93.20;;;;;;5028420;28;20557;-72
2022/07/12 12:25:03;;;;;;;2.63;1.80;;;28.00;93.30;;;;;;5028474;28;20124;-71
2022/07/12 12:27:28;;;;;;;4.13;2.03;;;28.00;94.00;;;;;;5028129;28;20041;-70
2022/07/12 12:30:04;;;;;;;2.25;1.60;;;28.00;93.60;;;;;;5027759;28;20041;-71
2022/07/12 12:32:29;;;;;;;3.13;1.38;;;28.10;93.30;;;;;;5027890;28;20037;-71
2022/07/12 12:35:11;;;;;;;5.68;1.58;;;28.20;93.00;;;;;;5027701;28;20061;-72
2022/07/12 12:37:37;;;;;;;2.25;1.05;;;28.20;92.40;;;;;;5027706;28;20034;-71
2022/07/12 12:40:05;;;;;;;2.15;1.30;;;28.30;92.30;;;;;;5028390;28;20681;-70
2022/07/12 12:42:31;;;;;;;2.63;1.00;;;28.30;91.50;;;;;;5025981;28;20052;-72
2022/07/12 12:44:56;;;;;;;2.05;0.95;;;28.30;91.30;;;;;;5028634;28;22119;-72
2022/07/12 12:47:31;;;;;;;1.05;0.85;;;28.30;91.70;;;;;;5027407;28;20025;-71
2022/07/12 12:49:57;;;;;;;1.75;0.73;;;28.30;90.90;;;;;;5028277;28;20052;-72
2022/07/12 12:52:24;;;;;;;1.52;0.80;;;28.10;91.60;;;;;;5028009;28;20159;-70
2022/07/12 12:54:50;;;;;;;1.73;1.25;;;28.20;91.60;;;;;;5027856;28;20045;-72
2022/07/12 12:57:16;;;;;;;3.65;1.15;;;28.10;91.40;;;;;;5027127;28;20041;-72